createdAt,value
2023-04-21T00:01:08.521Z,28.50
2023-04-21T00:03:38.868Z,23.98
2023-04-21T00:06:07.437Z,24.85
2023-04-21T00:08:38.066Z,26.50
2023-04-21T00:11:07.746Z,27.83
2023-04-21T00:13:36.129Z,26.55
2023-04-21T00:16:04.144Z,21.40
2023-04-21T00:18:32.071Z,26.83
2023-04-21T00:21:00.030Z,29.60
2023-04-21T00:23:27.933Z,25.17
2023-04-21T00:25:55.770Z,29.38
2023-04-21T00:28:24.999Z,28.77
2023-04-21T00:30:54.398Z,28.52
2023-04-21T00:33:22.429Z,26.38
2023-04-21T00:35:50.268Z,25.90
2023-04-21T00:38:18.089Z,28.88
2023-04-21T00:40:45.944Z,27.92
2023-04-21T00:43:13.839Z,27.67
2023-04-21T00:45:45.981Z,26.08
2023-04-21T00:48:14.025Z,28.15
2023-04-21T00:50:42.072Z,27.58
2023-04-21T00:53:10.807Z,29.17
2023-04-21T00:55:38.771Z,23.77
2023-04-21T00:58:07.291Z,29.33
2023-04-21T01:00:35.172Z,24.45
2023-04-21T01:03:05.646Z,31.73
2023-04-21T01:05:33.979Z,28.35
2023-04-21T01:08:03.108Z,23.95
2023-04-21T01:10:31.060Z,27.77
2023-04-21T01:12:58.963Z,33.42
2023-04-21T01:15:30.824Z,32.88
2023-04-21T01:17:59.228Z,27.85
2023-04-21T01:20:40.606Z,30.45
2023-04-21T01:23:34.922Z,30.65
2023-04-21T01:26:11.771Z,60.13
2023-04-21T01:29:08.281Z,47.22
2023-04-21T01:31:39.686Z,86.53
2023-04-21T01:34:18.057Z,109.53
2023-04-21T01:36:55.730Z,101.53
2023-04-21T01:39:40.188Z,96.55
2023-04-21T01:42:20.859Z,79.38
2023-04-21T01:44:57.205Z,114.07
2023-04-21T01:47:40.247Z,134.93
2023-04-21T01:50:28.872Z,94.22
2023-04-21T01:52:59.424Z,100.95
2023-04-21T01:55:29.287Z,88.32
2023-04-21T01:57:57.666Z,92.95
2023-04-21T02:00:25.675Z,106.50
2023-04-21T02:02:53.909Z,111.18
2023-04-21T02:05:21.833Z,88.85
2023-04-21T02:07:49.738Z,99.25
2023-04-21T02:10:17.804Z,118.30
2023-04-21T02:12:47.018Z,89.15
2023-04-21T02:15:15.008Z,91.65
2023-04-21T02:17:45.030Z,95.53
2023-04-21T02:20:13.411Z,94.32
2023-04-21T02:22:41.663Z,96.18
2023-04-21T02:25:09.949Z,91.90
2023-04-21T02:27:37.904Z,95.45
2023-04-21T02:30:08.902Z,85.70
2023-04-21T02:32:36.898Z,81.22
2023-04-21T02:35:05.332Z,100.50
2023-04-21T02:37:33.262Z,85.97
2023-04-21T02:40:01.142Z,104.13
2023-04-21T02:42:28.995Z,108.78
2023-04-21T02:44:56.835Z,81.20
2023-04-21T02:47:26.714Z,71.85
2023-04-21T02:49:54.730Z,82.07
2023-04-21T02:52:22.689Z,71.53
2023-04-21T02:54:50.568Z,79.63
2023-04-21T02:57:18.460Z,97.40
2023-04-21T02:59:46.357Z,80.28
2023-04-21T03:02:14.264Z,75.60
2023-04-21T03:04:43.571Z,105.28
2023-04-21T03:07:13.800Z,72.60
2023-04-21T03:09:41.913Z,78.25
2023-04-21T03:12:09.861Z,85.22
2023-04-21T03:14:37.762Z,105.20
2023-04-21T03:17:05.638Z,83.55
2023-04-21T03:19:34.137Z,126.90
2023-04-21T03:22:04.100Z,121.72
2023-04-21T03:24:32.016Z,98.13
2023-04-21T03:27:00.145Z,94.90
2023-04-21T03:29:28.158Z,115.35
2023-04-21T03:31:56.159Z,141.13
2023-04-21T03:34:24.104Z,127.57
2023-04-21T03:36:52.077Z,178.23
2023-04-21T03:39:21.747Z,123.38
2023-04-21T03:41:49.969Z,127.65
2023-04-21T03:44:17.803Z,151.32
2023-04-21T03:46:45.687Z,161.82
2023-04-21T03:49:13.574Z,212.45
2023-04-21T03:51:41.507Z,215.30
2023-04-21T03:54:09.394Z,132.70
2023-04-21T03:56:38.806Z,135.93
2023-04-21T03:59:07.188Z,115.53
2023-04-21T04:01:35.576Z,209.15
2023-04-21T04:04:03.879Z,131.82
2023-04-21T04:06:32.541Z,218.00
2023-04-21T04:09:02.585Z,167.32
2023-04-21T04:11:30.688Z,160.35
2023-04-21T04:14:00.948Z,124.43
2023-04-21T04:16:29.271Z,200.90
2023-04-21T04:18:57.566Z,187.23
2023-04-21T04:21:25.495Z,145.27
2023-04-21T04:23:53.385Z,150.25
2023-04-21T04:26:22.516Z,154.07
2023-04-21T04:28:50.606Z,139.60
2023-04-21T04:31:20.122Z,135.70
2023-04-21T04:33:48.160Z,154.05
2023-04-21T04:36:16.224Z,148.30
2023-04-21T04:38:46.862Z,215.02
2023-04-21T04:41:15.773Z,171.60
2023-04-21T04:43:44.196Z,156.02
2023-04-21T04:46:13.131Z,167.75
2023-04-21T04:48:42.683Z,182.55
2023-04-21T04:51:10.666Z,157.98
2023-04-21T04:53:38.566Z,144.27
2023-04-21T04:56:07.197Z,186.25
2023-04-21T04:58:35.170Z,167.70
2023-04-21T05:01:13.005Z,138.45
2023-04-21T05:03:42.628Z,201.88
2023-04-21T05:06:10.940Z,127.47
2023-04-21T05:08:40.247Z,135.45
2023-04-21T05:11:08.763Z,117.40
2023-04-21T05:13:39.583Z,121.38
2023-04-21T05:16:10.084Z,116.32
2023-04-21T05:18:38.320Z,121.30
2023-04-21T05:21:08.284Z,127.88
2023-04-21T05:23:36.250Z,108.47
2023-04-21T05:26:04.863Z,106.07
2023-04-21T05:28:33.050Z,105.43
2023-04-21T05:31:00.911Z,105.30
2023-04-21T05:33:31.620Z,88.07
2023-04-21T05:35:59.603Z,81.22
2023-04-21T05:38:28.886Z,68.57
2023-04-21T05:40:57.035Z,75.38
2023-04-21T05:43:24.861Z,91.15
2023-04-21T05:45:52.988Z,74.13
2023-04-21T05:48:20.994Z,73.45
2023-04-21T05:50:48.987Z,84.50
2023-04-21T05:53:17.075Z,89.63
2023-04-21T05:55:46.505Z,82.82
2023-04-21T05:58:14.453Z,64.03
2023-04-21T06:00:42.366Z,91.35
2023-04-21T06:03:10.522Z,96.63
2023-04-21T06:05:38.660Z,78.90
2023-04-21T06:08:06.883Z,80.28
2023-04-21T06:10:36.120Z,73.57
2023-04-21T06:13:05.439Z,66.60
2023-04-21T06:15:33.384Z,60.85
2023-04-21T06:18:01.342Z,63.58
2023-04-21T06:20:29.362Z,75.20
2023-04-21T06:22:57.414Z,73.03
2023-04-21T06:25:25.575Z,70.45
2023-04-21T06:27:53.591Z,74.18
2023-04-21T06:30:23.184Z,66.93
2023-04-21T06:32:51.108Z,72.47
2023-04-21T06:35:20.437Z,59.65
2023-04-21T06:37:48.423Z,66.45
2023-04-21T06:40:16.752Z,63.78
2023-04-21T06:42:44.724Z,62.47
2023-04-21T06:45:12.930Z,65.55
2023-04-21T06:47:42.422Z,50.92
2023-04-21T06:50:11.130Z,61.58
2023-04-21T06:52:39.308Z,76.00
2023-04-21T06:55:08.454Z,71.40
2023-04-21T06:57:38.622Z,71.30
2023-04-21T07:00:07.986Z,76.00
2023-04-21T07:02:36.182Z,65.20
2023-04-21T07:05:06.474Z,69.05
2023-04-21T07:07:35.212Z,78.10
2023-04-21T07:10:03.264Z,69.45
2023-04-21T07:12:32.108Z,78.88
2023-04-21T07:15:06.896Z,103.25
2023-04-21T07:17:34.871Z,101.68
2023-04-21T07:20:02.886Z,90.57
2023-04-21T07:22:32.303Z,98.00
2023-04-21T07:25:00.328Z,83.93
2023-04-21T07:27:28.289Z,89.60
2023-04-21T07:29:56.261Z,85.45
2023-04-21T07:32:24.231Z,85.78
2023-04-21T07:34:52.167Z,76.68
2023-04-21T07:37:20.042Z,77.82
2023-04-21T07:39:49.411Z,78.60
2023-04-21T07:42:17.301Z,81.70
2023-04-21T07:44:45.216Z,74.97
2023-04-21T07:47:13.070Z,76.03
2023-04-21T07:49:40.947Z,65.93
2023-04-21T07:52:08.873Z,72.00
2023-04-21T07:54:36.768Z,63.10
2023-04-21T07:57:07.164Z,55.47
2023-04-21T07:59:35.060Z,50.15
2023-04-21T08:02:03.184Z,48.40
2023-04-21T08:04:31.337Z,47.63
2023-04-21T08:06:59.813Z,47.55
2023-04-21T08:12:14.683Z,47.88
2023-04-21T08:14:42.643Z,40.47
2023-04-21T08:17:10.649Z,43.53
2023-04-21T08:19:38.609Z,42.20
2023-04-21T08:22:06.768Z,35.55
2023-04-21T08:24:34.637Z,38.28
2023-04-21T08:27:03.083Z,42.80
2023-04-21T08:29:32.652Z,43.25
2023-04-21T08:32:00.765Z,43.92
2023-04-21T08:34:28.954Z,40.72
2023-04-21T08:36:57.099Z,42.72
2023-04-21T08:39:25.557Z,42.85
2023-04-21T08:41:53.843Z,42.40
2023-04-21T08:44:22.736Z,42.05
2023-04-21T08:46:52.212Z,41.35
2023-04-21T08:49:22.008Z,34.70
2023-04-21T08:51:50.042Z,37.03
2023-04-21T08:54:18.063Z,36.45
2023-04-21T08:56:45.945Z,34.33
2023-04-21T08:59:13.772Z,35.28
2023-04-21T09:02:11.551Z,32.30
2023-04-21T09:04:41.031Z,31.42
2023-04-21T09:07:09.266Z,35.72
2023-04-21T09:09:55.399Z,33.92
2023-04-21T09:12:23.821Z,33.50
2023-04-21T09:14:51.810Z,31.92
2023-04-21T09:17:23.916Z,30.67
2023-04-21T09:19:52.157Z,27.70
2023-04-21T09:22:20.230Z,31.92
2023-04-21T09:24:49.034Z,25.55
2023-04-21T09:27:17.706Z,24.23
2023-04-21T09:30:17.891Z,23.50
2023-04-21T09:36:17.375Z,26.50
2023-04-21T09:39:20.386Z,22.85
2023-04-21T09:41:45.721Z,26.23
2023-04-21T09:44:14.851Z,29.90
2023-04-21T09:46:45.222Z,29.38
2023-04-21T09:49:17.306Z,23.88
2023-04-21T09:54:28.924Z,24.17
2023-04-21T09:57:01.611Z,23.10
2023-04-21T09:59:34.101Z,22.95
2023-04-21T10:02:05.655Z,24.55
2023-04-21T10:04:37.381Z,23.10
2023-04-21T10:07:06.563Z,25.08
2023-04-21T10:09:39.971Z,29.65
2023-04-21T10:12:09.734Z,24.48
2023-04-21T10:14:38.023Z,24.77
2023-04-21T10:17:07.085Z,20.65
2023-04-21T10:19:40.040Z,21.23
2023-04-21T10:22:09.842Z,18.67
2023-04-21T10:24:42.234Z,19.35
2023-04-21T10:27:12.194Z,19.10
2023-04-21T10:29:55.549Z,19.48
2023-04-21T10:32:40.046Z,20.00
2023-04-21T10:35:11.756Z,21.77
2023-04-21T10:37:41.197Z,18.97
2023-04-21T10:43:07.454Z,19.80
2023-04-21T10:45:35.415Z,19.08
2023-04-21T10:48:03.952Z,19.70
2023-04-21T10:50:33.477Z,21.42
2023-04-21T10:53:10.170Z,19.50
2023-04-21T10:55:38.811Z,19.17
2023-04-21T10:58:09.222Z,20.98
2023-04-21T11:00:39.306Z,18.33
2023-04-21T11:03:09.005Z,16.92
2023-04-21T11:05:40.478Z,15.70
2023-04-21T11:08:14.561Z,15.02
2023-04-21T11:10:48.709Z,13.73
2023-04-21T11:13:16.689Z,17.88
2023-04-21T11:16:06.865Z,13.35
2023-04-21T11:18:45.615Z,13.63
2023-04-21T11:21:18.389Z,12.52
2023-04-21T11:23:51.134Z,10.63
2023-04-21T11:26:20.355Z,11.63
2023-04-21T11:28:51.096Z,12.05
2023-04-21T11:31:19.087Z,12.10
2023-04-21T11:33:47.108Z,12.13
2023-04-21T11:36:16.502Z,9.40
2023-04-21T11:38:44.508Z,10.57
2023-04-21T11:41:12.473Z,9.73
2023-04-21T11:43:40.478Z,9.82
2023-04-21T11:46:17.720Z,10.07
2023-04-21T11:48:46.836Z,9.90
2023-04-21T11:51:21.498Z,8.93
2023-04-21T11:53:50.400Z,7.13
2023-04-21T11:56:21.660Z,10.50
2023-04-21T11:58:52.343Z,10.38
2023-04-21T12:01:22.873Z,8.70
2023-04-21T12:03:56.432Z,11.10
2023-04-21T12:06:28.618Z,8.75
2023-04-21T12:08:58.562Z,7.10
2023-04-21T12:11:27.952Z,7.72
2023-04-21T12:13:58.028Z,9.43
2023-04-21T12:16:28.108Z,9.82
2023-04-21T12:18:56.817Z,7.57
2023-04-21T12:21:30.310Z,7.10
2023-04-21T12:23:58.658Z,7.80
2023-04-21T12:26:26.573Z,8.02
2023-04-21T12:28:54.684Z,7.90
2023-04-21T12:31:22.687Z,8.70
2023-04-21T12:33:50.717Z,8.55
2023-04-21T12:36:18.697Z,6.60
2023-04-21T12:38:48.004Z,9.35
2023-04-21T12:41:15.844Z,6.20
2023-04-21T12:43:43.744Z,5.78
2023-04-21T12:46:11.924Z,6.78
2023-04-21T12:48:39.883Z,8.10
2023-04-21T12:51:08.323Z,6.72
2023-04-21T12:53:36.716Z,6.20
2023-04-21T12:56:07.022Z,6.15
2023-04-21T12:58:35.293Z,7.15
2023-04-21T13:01:03.290Z,8.70
2023-04-21T13:03:31.486Z,8.32
2023-04-21T13:05:59.522Z,7.03
2023-04-21T13:08:27.567Z,8.57
2023-04-21T13:10:55.675Z,6.75
2023-04-21T13:13:24.873Z,6.95
2023-04-21T13:15:52.803Z,5.88
2023-04-21T13:18:20.744Z,7.90
2023-04-21T13:20:48.692Z,5.68
2023-04-21T13:23:16.691Z,8.40
2023-04-21T13:25:45.498Z,7.85
2023-04-21T13:28:14.458Z,6.95
2023-04-21T13:30:44.589Z,7.55
2023-04-21T13:33:15.555Z,8.50
2023-04-21T13:35:43.784Z,7.68
2023-04-21T13:38:11.661Z,7.50
2023-04-21T13:40:39.782Z,8.57
2023-04-21T13:43:07.792Z,7.05
2023-04-21T13:45:36.041Z,11.57
2023-04-21T13:48:05.647Z,7.80
2023-04-21T13:50:33.929Z,8.63
2023-04-21T13:53:01.989Z,9.43
2023-04-21T13:55:30.183Z,9.50
2023-04-21T13:58:03.732Z,22.17
2023-04-21T14:00:32.177Z,10.57
2023-04-21T14:03:00.411Z,9.90
2023-04-21T14:05:30.134Z,8.32
2023-04-21T14:07:58.434Z,8.73
2023-04-21T14:10:26.842Z,8.23
2023-04-21T14:12:55.512Z,8.73
2023-04-21T14:15:27.567Z,10.02
2023-04-21T14:17:59.614Z,10.23
2023-04-21T14:20:31.946Z,9.75
2023-04-21T14:23:30.099Z,11.90
2023-04-21T14:26:02.844Z,8.75
2023-04-21T14:28:36.502Z,7.00
2023-04-21T14:31:05.513Z,8.75
2023-04-21T14:33:36.877Z,10.20
2023-04-21T14:36:16.256Z,10.68
2023-04-21T14:38:53.450Z,9.13
2023-04-21T14:41:30.282Z,8.13
2023-04-21T14:44:04.095Z,8.43
2023-04-21T14:46:37.374Z,8.20
2023-04-21T14:49:08.171Z,6.82
2023-04-21T14:51:39.389Z,11.63
2023-04-21T14:54:14.344Z,7.50
2023-04-21T14:56:49.291Z,9.77
2023-04-21T14:59:25.488Z,9.60
2023-04-21T15:02:01.519Z,8.68
2023-04-21T15:04:30.544Z,6.88
2023-04-21T15:07:04.058Z,9.98
2023-04-21T15:09:34.230Z,8.10
2023-04-21T15:12:07.503Z,8.73
2023-04-21T15:14:38.768Z,9.68
2023-04-21T15:17:12.375Z,9.40
2023-04-21T15:19:43.392Z,7.15
2023-04-21T15:22:16.178Z,7.13
2023-04-21T15:24:44.256Z,7.00
2023-04-21T15:27:12.299Z,9.20
2023-04-21T15:29:40.474Z,8.43
2023-04-21T15:32:11.814Z,8.30
2023-04-21T15:34:39.946Z,7.03
2023-04-21T15:37:08.011Z,8.07
2023-04-21T15:39:38.481Z,10.20
2023-04-21T15:42:08.468Z,9.52
2023-04-21T15:44:37.814Z,9.18
2023-04-21T15:47:10.559Z,9.85
2023-04-21T15:49:41.306Z,9.30
2023-04-21T15:52:09.754Z,10.32
2023-04-21T15:54:39.751Z,8.05
2023-04-21T15:57:08.572Z,8.63
2023-04-21T15:59:37.029Z,6.60
2023-04-21T16:02:15.612Z,7.80
2023-04-21T16:04:44.886Z,7.93
2023-04-21T16:07:13.569Z,7.47
2023-04-21T16:09:45.292Z,7.32
2023-04-21T16:12:13.450Z,8.43
2023-04-21T16:14:54.419Z,8.43
2023-04-21T16:17:27.739Z,8.65
2023-04-21T16:19:55.770Z,6.72
2023-04-21T16:22:23.873Z,6.82
2023-04-21T16:24:54.271Z,8.95
2023-04-21T16:27:22.256Z,7.32
2023-04-21T16:29:50.348Z,8.35
2023-04-21T16:32:18.610Z,11.80
2023-04-21T16:34:46.592Z,9.75
2023-04-21T16:37:14.538Z,4.07
2023-04-21T16:39:42.540Z,2.13
2023-04-21T16:42:11.725Z,5.38
2023-04-21T16:44:40.096Z,3.28
2023-04-21T16:47:08.581Z,2.35
2023-04-21T16:49:36.471Z,1.35
2023-04-21T16:52:04.747Z,2.08
2023-04-21T16:54:32.836Z,2.10
2023-04-21T16:57:03.635Z,4.28
2023-04-21T16:59:33.255Z,2.60
2023-04-21T17:02:01.719Z,4.80
2023-04-21T17:04:30.099Z,2.85
2023-04-21T17:06:58.159Z,3.92
2023-04-21T17:09:26.335Z,3.03
2023-04-21T17:11:54.307Z,4.22
2023-04-21T17:14:22.366Z,1.92
2023-04-21T17:16:51.610Z,2.90
2023-04-21T17:19:19.522Z,3.17
2023-04-21T17:21:47.368Z,3.40
2023-04-21T17:24:15.305Z,3.28
2023-04-21T17:26:43.546Z,3.33
2023-04-21T17:29:11.592Z,2.60
2023-04-21T17:31:39.513Z,1.42
2023-04-21T17:34:08.832Z,3.78
2023-04-21T17:36:36.859Z,2.90
2023-04-21T17:39:05.480Z,2.88
2023-04-21T17:41:33.382Z,1.55
2023-04-21T17:44:01.248Z,4.15
2023-04-21T17:46:29.168Z,2.97
2023-04-21T17:48:57.108Z,3.05
2023-04-21T17:51:26.384Z,5.00
2023-04-21T17:53:54.234Z,2.97
2023-04-21T17:56:22.415Z,5.55
2023-04-21T17:58:50.263Z,2.70
2023-04-21T18:01:18.216Z,5.07
2023-04-21T18:03:46.833Z,3.35
2023-04-21T18:06:15.954Z,2.08
2023-04-21T18:08:45.549Z,5.85
2023-04-21T18:11:13.670Z,6.38
2023-04-21T18:13:41.688Z,4.90
2023-04-21T18:16:09.630Z,4.43
2023-04-21T18:18:37.527Z,4.13
2023-04-21T18:21:05.602Z,5.28
2023-04-21T18:23:33.596Z,3.80
2023-04-21T18:26:03.044Z,4.22
2023-04-21T18:28:31.877Z,5.90
2023-04-21T18:31:00.667Z,4.00
2023-04-21T18:33:28.772Z,4.18
2023-04-21T18:35:56.800Z,9.68
2023-04-21T18:38:24.782Z,4.18
2023-04-21T18:40:52.833Z,6.68
2023-04-21T18:43:22.271Z,5.45
2023-04-21T18:45:50.311Z,5.38
2023-04-21T18:48:18.373Z,5.75
2023-04-21T18:50:46.823Z,7.13
2023-04-21T18:53:14.779Z,6.28
2023-04-21T18:55:42.735Z,8.73
2023-04-21T18:58:10.823Z,6.18
2023-04-21T19:00:40.180Z,8.20
2023-04-21T19:03:09.256Z,8.23
2023-04-21T19:05:40.360Z,7.72
2023-04-21T19:08:10.051Z,6.43
2023-04-21T19:10:38.728Z,9.90
2023-04-21T19:13:06.681Z,8.45
2023-04-21T19:15:35.036Z,7.32
2023-04-21T19:18:04.520Z,9.85
2023-04-21T19:20:32.824Z,6.10
2023-04-21T19:23:00.735Z,6.72
2023-04-21T19:25:28.817Z,5.10
2023-04-21T19:27:56.841Z,5.75
2023-04-21T19:30:25.080Z,6.22
2023-04-21T19:32:53.183Z,5.88
2023-04-21T19:35:22.646Z,7.53
2023-04-21T19:37:51.211Z,6.43
2023-04-21T19:40:19.794Z,8.05
2023-04-21T19:42:47.682Z,7.25
2023-04-21T19:45:15.809Z,6.85
2023-04-21T19:47:43.803Z,5.88
2023-04-21T19:50:12.830Z,14.13
2023-04-21T19:52:42.088Z,7.07
2023-04-21T19:55:10.576Z,7.30
2023-04-21T19:57:38.406Z,6.10
2023-04-21T20:00:09.138Z,6.32
2023-04-21T20:02:37.332Z,7.82
2023-04-21T20:05:07.295Z,6.68
2023-04-21T20:07:35.219Z,6.03
2023-04-21T20:10:06.827Z,5.68
2023-04-21T20:12:35.029Z,5.93
2023-04-21T20:15:03.411Z,7.43
2023-04-21T20:17:32.371Z,11.15
2023-04-21T20:20:00.306Z,7.72
2023-04-21T20:22:28.253Z,6.07
2023-04-21T20:24:58.018Z,5.20
2023-04-21T20:27:27.459Z,5.32
2023-04-21T20:30:11.427Z,6.40
2023-04-21T20:32:39.338Z,6.45
2023-04-21T20:35:08.134Z,5.28
2023-04-21T20:37:37.096Z,5.22
2023-04-21T20:40:08.407Z,7.78
2023-04-21T20:42:37.795Z,6.72
2023-04-21T20:45:07.191Z,8.45
2023-04-21T20:47:35.204Z,9.45
2023-04-21T20:50:03.453Z,5.80
2023-04-21T20:52:31.532Z,6.97
2023-04-21T20:54:59.358Z,9.57
2023-04-21T20:57:27.968Z,8.00
2023-04-21T20:59:57.433Z,6.53
2023-04-21T21:02:25.542Z,7.95
2023-04-21T21:04:53.800Z,9.07
2023-04-21T21:07:21.719Z,5.97
2023-04-21T21:09:49.587Z,6.50
2023-04-21T21:12:17.777Z,7.82
2023-04-21T21:14:45.723Z,7.38
2023-04-21T21:17:16.534Z,8.30
2023-04-21T21:19:44.588Z,8.25
2023-04-21T21:22:12.516Z,6.00
2023-04-21T21:24:40.442Z,8.63
2023-04-21T21:27:08.911Z,7.85
2023-04-21T21:29:37.135Z,7.05
2023-04-21T21:32:05.503Z,8.25
2023-04-21T21:34:34.725Z,7.20
2023-04-21T21:37:02.798Z,7.30
2023-04-21T21:39:30.695Z,8.23
2023-04-21T21:41:58.907Z,8.88
2023-04-21T21:44:26.940Z,7.07
2023-04-21T21:46:54.835Z,5.50
2023-04-21T21:49:22.824Z,8.68
2023-04-21T21:51:52.934Z,8.38
2023-04-21T21:54:21.005Z,9.02
2023-04-21T21:56:49.132Z,7.10
2023-04-21T21:59:17.216Z,7.35
2023-04-21T22:01:45.207Z,8.20
2023-04-21T22:04:13.589Z,7.82
2023-04-21T22:06:41.545Z,7.20
2023-04-21T22:09:10.765Z,6.65
2023-04-21T22:11:38.731Z,8.45
2023-04-21T22:14:19.009Z,7.97
2023-04-21T22:16:52.857Z,8.63
2023-04-21T22:19:21.602Z,9.15
2023-04-21T22:21:49.581Z,8.65
2023-04-21T22:24:19.203Z,10.52
2023-04-21T22:26:47.699Z,10.10
2023-04-21T22:29:15.585Z,7.95
2023-04-21T22:31:43.572Z,8.65
2023-04-21T22:34:14.895Z,7.68
2023-04-21T22:36:42.873Z,7.82
2023-04-21T22:39:10.848Z,11.18
2023-04-21T22:41:40.131Z,7.97
2023-04-21T22:44:07.992Z,9.07
2023-04-21T22:46:36.439Z,9.95
2023-04-21T22:49:04.944Z,12.30
2023-04-21T22:51:33.228Z,8.98
2023-04-21T22:54:01.611Z,10.50
2023-04-21T22:56:30.341Z,8.15
2023-04-21T22:58:59.679Z,12.00
2023-04-21T23:01:28.396Z,8.07
2023-04-21T23:03:56.520Z,8.73
2023-04-21T23:06:24.601Z,8.10
2023-04-21T23:08:53.152Z,8.30
2023-04-21T23:11:21.154Z,11.27
2023-04-21T23:13:49.002Z,7.50
2023-04-21T23:16:18.319Z,8.65
2023-04-21T23:18:46.151Z,8.18
2023-04-21T23:21:14.123Z,9.15
2023-04-21T23:23:42.008Z,6.93
2023-04-21T23:26:10.029Z,7.20
2023-04-21T23:28:37.954Z,9.43
2023-04-21T23:31:05.852Z,8.40
2023-04-21T23:33:35.454Z,9.55
2023-04-21T23:36:03.335Z,8.90
2023-04-21T23:38:31.326Z,9.30
2023-04-21T23:40:59.396Z,7.63
2023-04-21T23:43:27.404Z,6.90
2023-04-21T23:45:55.379Z,11.20
2023-04-21T23:48:23.277Z,7.63
2023-04-21T23:50:52.733Z,8.07
2023-04-21T23:53:20.780Z,6.93
2023-04-21T23:55:48.914Z,8.18
2023-04-21T23:58:16.739Z,8.00
